createdAt,value
2022-12-18T00:01:27.790Z,-0.50
2022-12-18T00:03:56.706Z,-0.50
2022-12-18T00:06:25.751Z,-0.50
2022-12-18T00:08:53.842Z,-0.50
2022-12-18T00:11:24.658Z,-0.40
2022-12-18T00:13:54.187Z,-0.40
2022-12-18T00:16:23.760Z,-0.40
2022-12-18T00:18:54.091Z,-0.40
2022-12-18T00:21:22.227Z,-0.40
2022-12-18T00:23:50.777Z,-0.40
2022-12-18T00:26:32.265Z,-0.40
2022-12-18T00:29:08.938Z,-0.40
2022-12-18T00:31:37.107Z,-0.30
2022-12-18T00:34:05.039Z,-0.30
2022-12-18T00:36:35.463Z,-0.30
2022-12-18T00:39:05.806Z,-0.30
2022-12-18T00:41:52.727Z,-0.30
2022-12-18T00:44:20.693Z,-0.30
2022-12-18T00:46:49.480Z,-0.20
2022-12-18T00:49:19.898Z,-0.20
2022-12-18T00:51:48.776Z,-0.20
2022-12-18T00:54:17.108Z,-0.20
2022-12-18T00:56:49.501Z,-0.20
2022-12-18T00:59:19.944Z,-0.20
2022-12-18T01:01:48.262Z,-0.20
2022-12-18T01:04:16.337Z,-0.20
2022-12-18T01:06:46.754Z,-0.20
2022-12-18T01:09:14.508Z,-0.20
2022-12-18T01:11:42.125Z,-0.20
2022-12-18T01:14:11.949Z,-0.20
2022-12-18T01:16:39.620Z,-0.20
2022-12-18T01:19:07.435Z,-0.20
2022-12-18T01:21:35.017Z,-0.20
2022-12-18T01:24:05.426Z,-0.30
2022-12-18T01:26:42.628Z,-0.30
2022-12-18T01:29:10.230Z,-0.30
2022-12-18T01:31:37.981Z,-0.40
2022-12-18T01:34:06.731Z,-0.40
2022-12-18T01:36:37.995Z,-0.40
2022-12-18T01:39:08.215Z,-0.40
2022-12-18T01:41:55.200Z,-0.40
2022-12-18T01:45:16.890Z,-0.50
2022-12-18T01:47:46.595Z,-0.50
2022-12-18T01:50:28.462Z,-0.50
2022-12-18T01:53:05.091Z,-0.50
2022-12-18T01:55:48.375Z,-0.50
2022-12-18T01:58:17.547Z,-0.50
2022-12-18T02:00:45.178Z,-0.50
2022-12-18T02:03:13.367Z,-0.60
2022-12-18T02:05:47.004Z,-0.60
2022-12-18T02:08:26.592Z,-0.60
2022-12-18T02:11:28.677Z,-0.60
2022-12-18T02:14:10.278Z,-0.60
2022-12-18T02:16:57.402Z,-0.70
2022-12-18T02:19:55.941Z,-0.70
2022-12-18T02:22:55.405Z,-0.70
2022-12-18T02:26:03.002Z,-0.70
2022-12-18T02:28:35.044Z,-0.80
2022-12-18T02:31:10.984Z,-0.80
2022-12-18T02:33:40.054Z,-0.80
2022-12-18T02:36:10.345Z,-0.80
2022-12-18T02:38:39.246Z,-0.90
2022-12-18T02:41:14.432Z,-0.90
2022-12-18T02:43:48.563Z,-0.90
2022-12-18T02:46:32.395Z,-1.00
2022-12-18T02:49:29.305Z,-1.00
2022-12-18T02:52:17.409Z,-1.00
2022-12-18T02:54:51.459Z,-1.00
2022-12-18T02:57:42.553Z,-1.00
2022-12-18T03:00:23.031Z,-1.10
2022-12-18T03:03:10.818Z,-1.10
2022-12-18T03:05:54.960Z,-1.10
2022-12-18T03:08:27.343Z,-1.10
2022-12-18T03:11:09.251Z,-1.20
2022-12-18T03:13:45.942Z,-1.20
2022-12-18T03:16:24.201Z,-1.20
2022-12-18T03:19:18.137Z,-1.30
2022-12-18T03:21:49.315Z,-1.30
2022-12-18T03:24:20.246Z,-1.30
2022-12-18T03:26:54.859Z,-1.40
2022-12-18T03:29:39.768Z,-1.40
2022-12-18T03:32:22.295Z,-1.50
2022-12-18T03:34:54.951Z,-1.50
2022-12-18T03:37:24.370Z,-1.50
2022-12-18T03:39:53.705Z,-1.50
2022-12-18T03:42:53.948Z,-1.60
2022-12-18T03:45:37.257Z,-1.60
2022-12-18T03:48:30.109Z,-1.60
2022-12-18T03:51:07.237Z,-1.70
2022-12-18T03:53:54.040Z,-1.70
2022-12-18T03:56:29.380Z,-1.70
2022-12-18T03:59:00.363Z,-1.70
2022-12-18T04:01:38.750Z,-1.70
2022-12-18T04:04:08.302Z,-1.80
2022-12-18T04:06:39.786Z,-1.80
2022-12-18T04:09:09.539Z,-1.80
2022-12-18T04:11:45.675Z,-1.80
2022-12-18T04:14:18.161Z,-1.80
2022-12-18T04:16:49.265Z,-1.80
2022-12-18T04:19:19.986Z,-1.80
2022-12-18T04:21:50.864Z,-1.80
2022-12-18T04:24:19.042Z,-1.90
2022-12-18T04:26:55.810Z,-1.90
2022-12-18T04:29:26.907Z,-1.90
2022-12-18T04:31:54.445Z,-1.90
2022-12-18T04:34:22.736Z,-1.90
2022-12-18T04:36:53.285Z,-1.90
2022-12-18T04:39:22.725Z,-1.90
2022-12-18T04:41:52.507Z,-1.90
2022-12-18T04:44:20.069Z,-1.90
2022-12-18T04:46:47.559Z,-1.80
2022-12-18T04:49:15.814Z,-1.90
2022-12-18T04:51:43.266Z,-1.90
2022-12-18T04:54:10.696Z,-1.90
2022-12-18T04:56:38.308Z,-1.90
2022-12-18T04:59:06.215Z,-1.80
2022-12-18T05:01:35.047Z,-1.80
2022-12-18T05:04:03.660Z,-1.90
2022-12-18T05:06:31.190Z,-1.90
2022-12-18T05:08:58.891Z,-1.90
2022-12-18T05:11:26.312Z,-1.90
2022-12-18T05:13:53.801Z,-1.90
2022-12-18T05:16:21.508Z,-2.00
2022-12-18T05:18:49.245Z,-2.00
2022-12-18T05:21:16.756Z,-2.00
2022-12-18T05:23:44.499Z,-2.00
2022-12-18T05:26:18.373Z,-2.00
2022-12-18T05:28:47.233Z,-2.00
2022-12-18T05:31:15.133Z,-2.00
2022-12-18T05:34:15.542Z,-2.00
2022-12-18T05:36:43.075Z,-2.00
2022-12-18T05:39:12.263Z,-2.00
2022-12-18T05:41:39.736Z,-2.10
2022-12-18T05:44:07.244Z,-2.10
2022-12-18T05:46:34.695Z,-2.10
2022-12-18T05:49:04.889Z,-2.10
2022-12-18T05:51:32.697Z,-2.10
2022-12-18T05:54:00.106Z,-2.10
2022-12-18T05:56:27.595Z,-2.10
2022-12-18T05:58:55.592Z,-2.10
2022-12-18T06:01:26.537Z,-2.20
2022-12-18T06:03:54.538Z,-2.20
2022-12-18T06:06:25.424Z,-2.20
2022-12-18T06:08:53.300Z,-2.20
2022-12-18T06:11:24.149Z,-2.30
2022-12-18T06:13:58.687Z,-2.30
2022-12-18T06:16:31.128Z,-2.30
2022-12-18T06:19:00.163Z,-2.30
2022-12-18T06:21:29.065Z,-2.30
2022-12-18T06:23:57.042Z,-2.40
2022-12-18T06:26:28.526Z,-2.40
2022-12-18T06:28:56.621Z,-2.40
2022-12-18T06:31:24.333Z,-2.40
2022-12-18T06:33:51.841Z,-2.40
2022-12-18T06:36:19.517Z,-2.40
2022-12-18T06:38:47.091Z,-2.40
2022-12-18T06:41:20.496Z,-2.50
2022-12-18T06:43:48.181Z,-2.50
2022-12-18T06:46:16.001Z,-2.50
2022-12-18T06:48:43.537Z,-2.50
2022-12-18T06:51:11.848Z,-2.60
2022-12-18T06:53:40.263Z,-2.60
2022-12-18T06:56:10.525Z,-2.60
2022-12-18T06:58:39.423Z,-2.60
2022-12-18T07:01:10.421Z,-2.60
2022-12-18T07:03:39.415Z,-2.60
2022-12-18T07:06:07.440Z,-2.70
2022-12-18T07:08:35.031Z,-2.70
2022-12-18T07:11:05.613Z,-2.70
2022-12-18T07:13:33.336Z,-2.70
2022-12-18T07:16:18.424Z,-2.70
2022-12-18T07:18:50.145Z,-2.70
2022-12-18T07:21:20.559Z,-2.70
2022-12-18T07:23:49.445Z,-2.70
2022-12-18T07:26:20.185Z,-2.70
2022-12-18T07:28:48.374Z,-2.70
2022-12-18T07:31:19.624Z,-2.70
2022-12-18T07:33:49.568Z,-2.70
2022-12-18T07:36:17.806Z,-2.70
2022-12-18T07:38:49.339Z,-2.60
2022-12-18T07:41:17.396Z,-2.70
2022-12-18T07:43:45.031Z,-2.70
2022-12-18T07:46:17.000Z,-2.60
2022-12-18T07:48:49.849Z,-2.70
2022-12-18T07:51:18.735Z,-2.60
2022-12-18T07:53:46.473Z,-2.60
2022-12-18T07:56:32.137Z,-2.60
2022-12-18T07:59:00.692Z,-2.60
2022-12-18T08:01:28.538Z,-2.60
2022-12-18T08:03:56.247Z,-2.60
2022-12-18T08:06:24.573Z,-2.50
2022-12-18T08:08:54.464Z,-2.50
2022-12-18T08:11:23.046Z,-2.50
2022-12-18T08:13:50.681Z,-2.50
2022-12-18T08:16:18.842Z,-2.40
2022-12-18T08:18:48.208Z,-2.40
2022-12-18T08:21:25.466Z,-2.40
2022-12-18T08:23:54.537Z,-2.40
2022-12-18T08:26:22.230Z,-2.40
2022-12-18T08:28:51.084Z,-2.30
2022-12-18T08:31:19.917Z,-2.30
2022-12-18T08:33:51.447Z,-2.30
2022-12-18T08:36:19.002Z,-2.30
2022-12-18T08:38:47.560Z,-2.30
2022-12-18T08:41:17.054Z,-2.30
2022-12-18T08:44:03.057Z,-2.20
2022-12-18T08:46:36.377Z,-2.20
2022-12-18T08:49:05.107Z,-2.20
2022-12-18T08:51:33.014Z,-2.20
2022-12-18T08:54:00.607Z,-2.10
2022-12-18T08:56:28.237Z,-2.10
2022-12-18T08:58:56.462Z,-2.10
2022-12-18T09:01:24.519Z,-2.10
2022-12-18T09:03:52.179Z,-2.00
2022-12-18T09:06:21.078Z,-2.00
2022-12-18T09:08:49.107Z,-2.00
2022-12-18T09:11:25.952Z,-1.90
2022-12-18T09:13:55.039Z,-1.90
2022-12-18T09:16:27.431Z,-1.80
2022-12-18T09:19:03.258Z,-1.80
2022-12-18T09:21:35.803Z,-1.70
2022-12-18T09:24:08.566Z,-1.70
2022-12-18T09:26:37.997Z,-1.60
2022-12-18T09:29:08.323Z,-1.60
2022-12-18T09:31:37.307Z,-1.50
2022-12-18T09:34:08.057Z,-1.50
2022-12-18T09:36:35.618Z,-1.40
2022-12-18T09:39:08.117Z,-1.40
2022-12-18T09:41:42.157Z,-1.30
2022-12-18T09:44:17.845Z,-1.20
2022-12-18T09:47:08.233Z,-1.20
2022-12-18T09:49:43.309Z,-1.10
2022-12-18T09:52:38.560Z,-1.10
2022-12-18T09:55:15.665Z,-1.00
2022-12-18T09:57:49.143Z,-1.00
2022-12-18T10:00:23.105Z,-0.90
2022-12-18T10:02:53.351Z,-0.90
2022-12-18T10:05:35.627Z,-0.80
2022-12-18T10:08:38.662Z,-0.80
2022-12-18T10:11:14.894Z,-0.70
2022-12-18T10:13:53.587Z,-0.70
2022-12-18T10:16:35.581Z,-0.60
2022-12-18T10:19:21.589Z,-0.50
2022-12-18T10:22:02.525Z,-0.40
2022-12-18T10:24:35.873Z,-0.40
2022-12-18T10:27:25.561Z,-0.20
2022-12-18T10:29:53.187Z,-0.10
2022-12-18T10:32:27.736Z,0.00
2022-12-18T10:35:00.822Z,0.10
2022-12-18T10:37:30.943Z,0.10
2022-12-18T10:40:22.204Z,0.20
2022-12-18T10:43:27.989Z,0.30
2022-12-18T10:46:10.354Z,0.40
2022-12-18T10:48:41.127Z,0.40
2022-12-18T10:51:12.275Z,0.50
2022-12-18T10:53:44.130Z,0.50
2022-12-18T10:56:12.593Z,0.50
2022-12-18T10:58:41.467Z,0.60
2022-12-18T11:01:16.974Z,0.60
2022-12-18T11:03:44.545Z,0.60
2022-12-18T11:06:22.899Z,0.70
2022-12-18T11:09:23.426Z,0.70
2022-12-18T11:12:00.406Z,0.80
2022-12-18T11:14:47.389Z,0.80
2022-12-18T11:17:26.690Z,0.80
2022-12-18T11:20:06.371Z,0.90
2022-12-18T11:22:36.450Z,0.90
2022-12-18T11:25:32.582Z,1.00
2022-12-18T11:28:03.261Z,1.00
2022-12-18T11:30:36.662Z,1.10
2022-12-18T11:33:23.023Z,1.10
2022-12-18T11:36:06.456Z,1.20
2022-12-18T11:38:35.866Z,1.20
2022-12-18T11:41:18.748Z,1.30
2022-12-18T11:43:51.862Z,1.30
2022-12-18T11:46:50.381Z,1.30
2022-12-18T11:49:37.400Z,1.40
2022-12-18T11:52:28.571Z,1.40
2022-12-18T11:55:01.121Z,1.40
2022-12-18T11:58:00.756Z,1.50
2022-12-18T12:00:28.594Z,1.50
2022-12-18T12:03:20.179Z,1.50
2022-12-18T12:06:08.470Z,1.50
2022-12-18T12:08:48.255Z,1.50
2022-12-18T12:11:37.306Z,1.60
2022-12-18T12:14:21.860Z,1.60
2022-12-18T12:16:58.619Z,1.60
2022-12-18T12:19:26.375Z,1.60
2022-12-18T12:22:05.569Z,1.60
2022-12-18T12:25:00.829Z,1.60
2022-12-18T12:28:02.265Z,1.70
2022-12-18T12:30:57.558Z,1.70
2022-12-18T12:33:50.178Z,1.70
2022-12-18T12:36:20.406Z,1.80
2022-12-18T12:38:56.569Z,1.80
2022-12-18T12:41:50.801Z,1.80
2022-12-18T12:44:26.706Z,1.80
2022-12-18T12:46:58.735Z,1.80
2022-12-18T12:49:31.193Z,1.80
2022-12-18T12:52:07.451Z,1.80
2022-12-18T12:54:36.612Z,1.90
2022-12-18T12:57:24.684Z,1.90
2022-12-18T13:00:12.636Z,1.80
2022-12-18T13:02:55.988Z,1.90
2022-12-18T13:05:56.257Z,1.90
2022-12-18T13:08:27.416Z,1.90
2022-12-18T13:11:18.096Z,1.90
2022-12-18T13:13:55.893Z,1.90
2022-12-18T13:16:28.423Z,1.90
2022-12-18T13:18:59.945Z,1.90
2022-12-18T13:21:35.190Z,1.90
2022-12-18T13:24:31.894Z,1.90
2022-12-18T13:26:59.413Z,2.00
2022-12-18T13:29:56.348Z,1.90
2022-12-18T13:32:26.257Z,2.00
2022-12-18T13:35:19.689Z,2.00
2022-12-18T13:37:54.267Z,2.00
2022-12-18T13:40:40.330Z,2.10
2022-12-18T13:43:22.571Z,2.10
2022-12-18T13:46:28.471Z,2.10
2022-12-18T13:49:18.448Z,2.10
2022-12-18T13:51:49.898Z,2.10
2022-12-18T13:54:32.016Z,2.10
2022-12-18T13:56:59.570Z,2.10
2022-12-18T13:59:34.392Z,2.10
2022-12-18T14:02:11.508Z,2.10
2022-12-18T14:04:39.834Z,2.00
2022-12-18T14:07:13.673Z,2.10
2022-12-18T14:09:45.107Z,2.10
2022-12-18T14:12:57.934Z,2.00
2022-12-18T14:15:28.485Z,2.00
2022-12-18T14:18:12.886Z,2.00
2022-12-18T14:20:52.672Z,2.00
2022-12-18T14:23:35.706Z,2.00
2022-12-18T14:26:19.498Z,1.90
2022-12-18T14:28:47.551Z,1.90
2022-12-18T14:31:26.233Z,1.90
2022-12-18T14:33:54.558Z,1.90
2022-12-18T14:36:23.625Z,1.90
2022-12-18T14:38:55.199Z,1.90
2022-12-18T14:41:23.147Z,1.90
2022-12-18T14:43:54.116Z,1.80
2022-12-18T14:46:40.105Z,1.80
2022-12-18T14:49:27.833Z,1.80
2022-12-18T14:51:56.384Z,1.70
2022-12-18T14:54:25.094Z,1.70
2022-12-18T14:57:01.359Z,1.60
2022-12-18T14:59:29.578Z,1.60
2022-12-18T15:02:03.157Z,1.50
2022-12-18T15:04:37.338Z,1.50
2022-12-18T15:07:24.505Z,1.50
2022-12-18T15:10:04.718Z,1.40
2022-12-18T15:12:40.030Z,1.40
2022-12-18T15:15:27.312Z,1.40
2022-12-18T15:17:58.653Z,1.30
2022-12-18T15:20:29.137Z,1.30
2022-12-18T15:22:56.495Z,1.30
2022-12-18T15:25:32.748Z,1.30
2022-12-18T15:28:00.053Z,1.20
2022-12-18T15:30:27.608Z,1.20
2022-12-18T15:33:14.973Z,1.20
2022-12-18T15:35:46.785Z,1.10
2022-12-18T15:38:14.531Z,1.10
2022-12-18T15:40:42.871Z,1.10
2022-12-18T15:43:28.956Z,1.10
2022-12-18T15:45:56.287Z,1.10
2022-12-18T15:48:24.201Z,1.00
2022-12-18T15:50:52.249Z,1.00
2022-12-18T15:53:19.973Z,1.00
2022-12-18T15:56:06.369Z,1.00
2022-12-18T15:58:34.528Z,1.00
2022-12-18T16:01:03.343Z,1.00
2022-12-18T16:03:31.920Z,1.00
2022-12-18T16:06:01.554Z,1.00
2022-12-18T16:08:31.209Z,1.00
2022-12-18T16:10:59.653Z,1.00
2022-12-18T16:13:27.105Z,1.00
2022-12-18T16:15:54.737Z,1.00
2022-12-18T16:18:23.376Z,1.00
2022-12-18T16:20:51.167Z,1.00
2022-12-18T16:23:18.605Z,1.00
2022-12-18T16:25:46.178Z,1.00
2022-12-18T16:28:13.689Z,1.00
2022-12-18T16:30:41.555Z,1.00
2022-12-18T16:33:11.753Z,1.00
2022-12-18T16:35:39.375Z,1.00
2022-12-18T16:38:06.893Z,1.00
2022-12-18T16:40:34.745Z,1.00
2022-12-18T16:43:02.490Z,1.10
2022-12-18T16:45:34.282Z,1.10
2022-12-18T16:48:01.809Z,1.10
2022-12-18T16:50:29.754Z,1.10
2022-12-18T16:52:57.283Z,1.10
2022-12-18T16:55:24.766Z,1.10
2022-12-18T16:57:52.455Z,1.10
2022-12-18T17:00:20.148Z,1.10
2022-12-18T17:02:48.673Z,1.10
2022-12-18T17:05:16.345Z,1.20
2022-12-18T17:07:43.884Z,1.20
2022-12-18T17:10:11.443Z,1.20
2022-12-18T17:12:38.902Z,1.20
2022-12-18T17:15:07.052Z,1.20
2022-12-18T17:17:36.745Z,1.20
2022-12-18T17:20:05.349Z,1.20
2022-12-18T17:22:32.910Z,1.20
2022-12-18T17:25:00.374Z,1.20
2022-12-18T17:27:27.858Z,1.30
2022-12-18T17:29:55.949Z,1.30
2022-12-18T17:32:23.419Z,1.30
2022-12-18T17:34:50.936Z,1.30
2022-12-18T17:37:18.615Z,1.30
2022-12-18T17:39:46.079Z,1.30
2022-12-18T17:42:15.442Z,1.30
2022-12-18T17:44:43.863Z,1.30
2022-12-18T17:47:13.339Z,1.30
2022-12-18T17:49:41.012Z,1.30
2022-12-18T17:52:09.007Z,1.40
2022-12-18T17:54:40.021Z,1.40
2022-12-18T17:57:07.762Z,1.40
2022-12-18T17:59:35.293Z,1.40
2022-12-18T18:02:02.989Z,1.40
2022-12-18T18:04:30.621Z,1.40
2022-12-18T18:06:58.174Z,1.40
2022-12-18T18:09:25.862Z,1.50
2022-12-18T18:12:11.744Z,1.50
2022-12-18T18:14:39.507Z,1.50
2022-12-18T18:17:07.382Z,1.50
2022-12-18T18:19:35.042Z,1.50
2022-12-18T18:22:03.059Z,1.60
2022-12-18T18:24:33.350Z,1.60
2022-12-18T18:27:00.900Z,1.60
2022-12-18T18:29:30.643Z,1.60
2022-12-18T18:31:58.607Z,1.70
2022-12-18T18:34:29.467Z,1.70
2022-12-18T18:37:01.051Z,1.60
2022-12-18T18:39:28.754Z,1.70
2022-12-18T18:41:57.243Z,1.70
2022-12-18T18:44:27.792Z,1.70
2022-12-18T18:46:58.912Z,1.70
2022-12-18T18:49:27.976Z,1.80
2022-12-18T18:51:57.726Z,1.80
2022-12-18T18:54:26.941Z,1.70
2022-12-18T18:59:43.063Z,1.80
2022-12-18T19:02:14.024Z,1.80
2022-12-18T19:04:46.160Z,1.80
2022-12-18T19:07:23.894Z,1.80
2022-12-18T19:10:04.029Z,1.90
2022-12-18T19:12:52.155Z,1.80
2022-12-18T19:15:19.861Z,1.90
2022-12-18T19:17:47.969Z,1.90
2022-12-18T19:20:16.769Z,1.90
2022-12-18T19:22:47.917Z,1.90
2022-12-18T19:25:28.374Z,1.90
2022-12-18T19:28:19.274Z,1.90
2022-12-18T19:30:50.403Z,2.00
2022-12-18T19:33:42.011Z,1.90
2022-12-18T19:36:40.770Z,2.00
2022-12-18T19:39:12.281Z,2.00
2022-12-18T19:41:40.718Z,2.00
2022-12-18T19:44:12.124Z,2.00
2022-12-18T19:46:41.972Z,2.00
2022-12-18T19:49:17.542Z,2.00
2022-12-18T19:51:46.172Z,2.00
2022-12-18T19:54:17.273Z,2.00
2022-12-18T19:56:46.122Z,2.10
2022-12-18T19:59:14.353Z,2.10
2022-12-18T20:01:42.168Z,2.10
2022-12-18T20:04:09.938Z,2.10
2022-12-18T20:06:56.639Z,2.10
2022-12-18T20:09:24.336Z,2.10
2022-12-18T20:11:52.675Z,2.10
2022-12-18T20:14:23.574Z,2.20
2022-12-18T20:16:52.641Z,2.20
2022-12-18T20:19:21.064Z,2.20
2022-12-18T20:21:48.852Z,2.20
2022-12-18T20:24:16.685Z,2.20
2022-12-18T20:26:44.501Z,2.20
2022-12-18T20:29:12.068Z,2.20
2022-12-18T20:31:39.653Z,2.30
2022-12-18T20:34:08.356Z,2.20
2022-12-18T20:36:38.813Z,2.30
2022-12-18T20:39:09.888Z,2.30
2022-12-18T20:41:39.246Z,2.30
2022-12-18T20:44:23.152Z,2.30
2022-12-18T20:46:53.817Z,2.30
2022-12-18T20:49:22.002Z,2.30
2022-12-18T20:51:54.853Z,2.30
2022-12-18T20:54:23.785Z,2.30
2022-12-18T20:56:51.766Z,2.30
2022-12-18T20:59:20.004Z,2.40
2022-12-18T21:01:48.827Z,2.40
2022-12-18T21:04:18.489Z,2.40
2022-12-18T21:06:52.388Z,2.40
2022-12-18T21:09:23.854Z,2.40
2022-12-18T21:12:12.378Z,2.40
2022-12-18T21:14:42.331Z,2.50
2022-12-18T21:17:10.096Z,2.50
2022-12-18T21:19:37.958Z,2.50
2022-12-18T21:22:05.992Z,2.50
2022-12-18T21:24:33.727Z,2.60
2022-12-18T21:27:02.079Z,2.60
2022-12-18T21:29:29.834Z,2.60
2022-12-18T21:31:57.415Z,2.60
2022-12-18T21:34:26.985Z,2.60
2022-12-18T21:36:56.463Z,2.70
2022-12-18T21:39:25.704Z,2.70
2022-12-18T21:42:12.592Z,2.70
2022-12-18T21:44:41.924Z,2.70
2022-12-18T21:47:21.776Z,2.70
2022-12-18T21:49:52.893Z,2.80
2022-12-18T21:52:25.713Z,2.80
2022-12-18T21:55:06.676Z,2.80
2022-12-18T21:57:37.387Z,2.80
2022-12-18T22:00:06.579Z,2.80
2022-12-18T22:02:39.865Z,2.80
2022-12-18T22:05:08.160Z,2.80
2022-12-18T22:07:35.637Z,2.90
2022-12-18T22:10:03.212Z,2.90
2022-12-18T22:12:43.573Z,2.90
2022-12-18T22:15:21.308Z,2.90
2022-12-18T22:17:57.412Z,2.90
2022-12-18T22:20:30.045Z,3.00
2022-12-18T22:22:58.022Z,2.90
2022-12-18T22:25:25.627Z,3.00
2022-12-18T22:28:11.398Z,3.00
2022-12-18T22:30:38.887Z,3.00
2022-12-18T22:33:06.443Z,3.10
2022-12-18T22:35:33.952Z,3.10
2022-12-18T22:38:02.190Z,3.10
2022-12-18T22:40:29.877Z,3.10
2022-12-18T22:42:57.762Z,3.10
2022-12-18T22:45:26.912Z,3.20
2022-12-18T22:47:54.730Z,3.20
2022-12-18T22:50:22.317Z,3.20
2022-12-18T22:52:49.902Z,3.20
2022-12-18T22:55:17.394Z,3.30
2022-12-18T22:57:49.195Z,3.30
2022-12-18T23:00:24.134Z,3.30
2022-12-18T23:02:59.942Z,3.30
2022-12-18T23:05:32.030Z,3.40
2022-12-18T23:07:59.835Z,3.40
2022-12-18T23:10:28.270Z,3.40
2022-12-18T23:12:55.883Z,3.40
2022-12-18T23:15:28.040Z,3.40
2022-12-18T23:17:59.682Z,3.40
2022-12-18T23:20:28.038Z,3.50
2022-12-18T23:22:55.726Z,3.50
2022-12-18T23:25:23.452Z,3.50
2022-12-18T23:27:51.412Z,3.50
2022-12-18T23:30:19.074Z,3.50
2022-12-18T23:32:46.653Z,3.50
2022-12-18T23:35:15.791Z,3.50
2022-12-18T23:38:00.480Z,3.50
2022-12-18T23:40:30.165Z,3.60
2022-12-18T23:42:59.276Z,3.50
2022-12-18T23:45:26.696Z,3.60
2022-12-18T23:47:54.193Z,3.60
2022-12-18T23:50:22.162Z,3.60
2022-12-18T23:52:59.439Z,3.60
2022-12-18T23:55:33.181Z,3.60
2022-12-18T23:58:00.718Z,3.50
